Apalachicola, Florida
Current Conditions -  °F | °C
As of 8:53 PM on Sunday 25 Jan 2015 (Local Time) from KAAF Reporting Station
Broken Clouds Broken Clouds  
Wind Chill: 19°   Ceiling: 3500
Heat Index: 19°   Visibility: 10mi
Dew Point: 13°   Wind: 12mph
Humidity: 68%   Direction: 250°WSW
Pressure: 29.88"   Gusts: NA
Location:  29.73°N, 84.99°W
Report Text: KAAF 260153Z AUTO 25010KT 10SM BKN035 BKN048 BKN055 19/13 A2988 RMK AO2 SLP119 T01890128 TSNO $
Loading
Personal Weather Stations






























Interactive Weather Map New forecast layout! Learn more

10-Day Weather Forecast

Advertisements
Track Severe Weather on mobile